createdAt,value
2022-12-15T00:00:53.660Z,61.43
2022-12-15T00:02:16.873Z,61.29
2022-12-15T00:03:37.803Z,61.65
2022-12-15T00:04:58.952Z,61.61
2022-12-15T00:06:19.725Z,61.36
2022-12-15T00:07:40.498Z,61.54
2022-12-15T00:09:01.418Z,61.60
2022-12-15T00:10:22.777Z,61.52
2022-12-15T00:11:43.433Z,61.47
2022-12-15T00:13:04.218Z,61.54
2022-12-15T00:14:24.919Z,61.43
2022-12-15T00:15:45.602Z,61.47
2022-12-15T00:17:06.304Z,61.33
2022-12-15T00:18:26.911Z,61.50
2022-12-15T00:19:47.324Z,61.38
2022-12-15T00:21:07.933Z,61.45
2022-12-15T00:22:28.697Z,61.48
2022-12-15T00:23:49.254Z,61.44
2022-12-15T00:25:10.457Z,61.67
2022-12-15T00:26:31.097Z,61.49
2022-12-15T00:27:51.846Z,61.62
2022-12-15T00:29:12.392Z,61.69
2022-12-15T00:30:33.541Z,61.71
2022-12-15T00:31:54.328Z,61.92
2022-12-15T00:33:15.228Z,61.93
2022-12-15T00:34:35.915Z,62.18
2022-12-15T00:35:56.537Z,62.23
2022-12-15T00:37:17.078Z,62.16
2022-12-15T00:38:37.662Z,61.93
2022-12-15T00:39:40.452Z,61.86
2022-12-15T00:40:42.706Z,61.92
2022-12-15T00:41:44.897Z,61.73
2022-12-15T00:42:49.529Z,61.79
2022-12-15T00:43:52.953Z,61.67
2022-12-15T00:44:59.043Z,61.46
2022-12-15T00:46:20.624Z,61.60
2022-12-15T00:47:23.026Z,61.53
2022-12-15T00:48:25.235Z,61.41
2022-12-15T00:49:48.455Z,61.49
2022-12-15T00:50:53.400Z,61.53
2022-12-15T00:52:14.180Z,61.53
2022-12-15T00:53:35.021Z,61.74
2022-12-15T00:54:55.572Z,61.80
2022-12-15T00:56:16.450Z,61.63
2022-12-15T00:57:37.038Z,61.83
2022-12-15T00:58:58.020Z,61.58
2022-12-15T01:00:18.625Z,61.73
2022-12-15T01:01:39.284Z,61.62
2022-12-15T01:03:00.676Z,61.42
2022-12-15T01:04:21.735Z,61.47
2022-12-15T01:05:43.065Z,61.44
2022-12-15T01:07:03.798Z,61.32
2022-12-15T01:08:24.781Z,61.34
2022-12-15T01:09:45.707Z,61.24
2022-12-15T01:11:06.312Z,61.23
2022-12-15T01:12:27.772Z,61.24
2022-12-15T01:13:49.708Z,61.19
2022-12-15T01:15:11.130Z,61.16
2022-12-15T01:16:32.171Z,61.12
2022-12-15T01:17:52.799Z,61.18
2022-12-15T01:19:13.676Z,61.04
2022-12-15T01:20:18.684Z,61.15
2022-12-15T01:21:24.697Z,60.93
2022-12-15T01:22:29.890Z,60.77
2022-12-15T01:23:33.928Z,60.91
2022-12-15T01:24:36.662Z,60.81
2022-12-15T01:25:39.626Z,60.60
2022-12-15T01:26:41.848Z,60.77
2022-12-15T01:27:45.457Z,60.72
2022-12-15T01:28:47.725Z,60.61
2022-12-15T01:29:49.972Z,60.63
2022-12-15T01:30:52.357Z,60.68
2022-12-15T01:31:54.578Z,60.64
2022-12-15T01:32:56.986Z,60.60
2022-12-15T01:33:59.212Z,60.55
2022-12-15T01:35:01.478Z,60.66
2022-12-15T01:36:04.246Z,60.65
2022-12-15T01:37:06.469Z,60.82
2022-12-15T01:38:10.157Z,60.69
2022-12-15T01:39:12.784Z,60.82
2022-12-15T01:40:36.722Z,60.91
2022-12-15T01:41:38.908Z,60.93
2022-12-15T01:42:41.321Z,61.03
2022-12-15T01:43:43.533Z,61.12
2022-12-15T01:44:50.161Z,61.24
2022-12-15T01:45:58.378Z,61.27
2022-12-15T01:47:00.680Z,61.35
2022-12-15T01:48:07.464Z,61.32
2022-12-15T01:49:20.905Z,61.44
2022-12-15T01:50:26.050Z,61.52
2022-12-15T01:51:39.478Z,61.51
2022-12-15T01:52:42.589Z,61.46
2022-12-15T01:54:00.226Z,61.72
2022-12-15T01:55:02.401Z,61.62
2022-12-15T01:56:06.350Z,61.77
2022-12-15T01:57:19.066Z,61.93
2022-12-15T01:58:23.154Z,62.06
2022-12-15T01:59:33.647Z,62.03
2022-12-15T02:00:36.035Z,62.25
2022-12-15T02:01:38.570Z,62.22
2022-12-15T02:02:41.776Z,62.21
2022-12-15T02:03:46.652Z,62.27
2022-12-15T02:04:51.605Z,62.37
2022-12-15T02:05:55.050Z,62.30
2022-12-15T02:06:57.240Z,62.24
2022-12-15T02:08:01.200Z,62.32
2022-12-15T02:09:04.506Z,62.28
2022-12-15T02:10:10.734Z,62.51
2022-12-15T02:11:30.263Z,62.56
2022-12-15T02:12:44.065Z,62.50
2022-12-15T02:13:59.868Z,62.69
2022-12-15T02:15:31.776Z,62.64
2022-12-15T02:16:55.792Z,62.77
2022-12-15T02:18:17.853Z,62.88
2022-12-15T02:19:26.237Z,62.91
2022-12-15T02:20:28.346Z,62.85
2022-12-15T02:21:42.158Z,62.93
2022-12-15T02:23:06.039Z,63.01
2022-12-15T02:24:31.698Z,62.91
2022-12-15T02:25:54.806Z,62.95
2022-12-15T02:27:28.177Z,63.03
2022-12-15T02:28:42.942Z,62.88
2022-12-15T02:30:03.809Z,62.90
2022-12-15T02:31:31.107Z,62.65
2022-12-15T02:32:43.030Z,62.79
2022-12-15T02:33:53.251Z,62.62
2022-12-15T02:35:01.830Z,62.73
2022-12-15T02:36:14.728Z,62.56
2022-12-15T02:37:23.306Z,62.58
2022-12-15T02:38:40.119Z,62.63
2022-12-15T02:39:43.201Z,62.55
2022-12-15T02:40:45.994Z,62.68
2022-12-15T02:41:49.177Z,62.62
2022-12-15T02:42:59.249Z,62.48
2022-12-15T02:44:05.842Z,62.60
2022-12-15T02:45:08.647Z,62.46
2022-12-15T02:46:31.299Z,62.52
2022-12-15T02:47:46.485Z,62.63
2022-12-15T02:49:30.954Z,62.63
2022-12-15T02:50:40.368Z,62.65
2022-12-15T02:51:59.129Z,62.52
2022-12-15T02:53:13.347Z,62.69
2022-12-15T02:54:34.216Z,62.70
2022-12-15T02:55:57.843Z,62.55
2022-12-15T02:57:20.325Z,62.47
2022-12-15T02:58:55.301Z,62.54
2022-12-15T03:00:10.731Z,62.62
2022-12-15T03:01:21.020Z,62.37
2022-12-15T03:02:27.093Z,62.54
2022-12-15T03:03:32.633Z,62.53
2022-12-15T03:04:35.226Z,62.49
2022-12-15T03:05:37.508Z,62.48
2022-12-15T03:06:39.949Z,62.42
2022-12-15T03:07:43.031Z,62.58
2022-12-15T03:08:45.295Z,62.47
2022-12-15T03:09:47.512Z,62.52
2022-12-15T03:10:54.483Z,62.42
2022-12-15T03:11:57.999Z,62.25
2022-12-15T03:13:00.335Z,62.38
2022-12-15T03:14:02.747Z,62.41
2022-12-15T03:15:05.737Z,62.25
2022-12-15T03:16:08.331Z,62.29
2022-12-15T03:17:10.564Z,62.31
2022-12-15T03:18:12.734Z,62.46
2022-12-15T03:19:14.928Z,62.39
2022-12-15T03:20:19.974Z,62.40
2022-12-15T03:21:24.770Z,62.55
2022-12-15T03:22:27.064Z,62.46
2022-12-15T03:23:29.872Z,62.38
2022-12-15T03:24:32.541Z,62.50
2022-12-15T03:25:34.813Z,62.46
2022-12-15T03:26:37.247Z,62.44
2022-12-15T03:27:39.444Z,62.50
2022-12-15T03:28:42.759Z,62.51
2022-12-15T03:29:45.442Z,62.44
2022-12-15T03:30:51.602Z,62.54
2022-12-15T03:31:55.673Z,62.49
2022-12-15T03:32:57.917Z,62.57
2022-12-15T03:34:00.157Z,62.50
2022-12-15T03:35:02.389Z,62.58
2022-12-15T03:36:05.290Z,62.67
2022-12-15T03:37:08.026Z,62.62
2022-12-15T03:38:10.196Z,62.78
2022-12-15T03:39:12.640Z,62.61
2022-12-15T03:40:15.087Z,62.79
2022-12-15T03:41:18.427Z,62.69
2022-12-15T03:42:40.612Z,62.89
2022-12-15T03:43:45.904Z,62.84
2022-12-15T03:44:51.804Z,62.82
2022-12-15T03:45:54.196Z,62.86
2022-12-15T03:47:03.262Z,62.86
2022-12-15T03:48:06.260Z,62.98
2022-12-15T03:49:08.536Z,63.14
2022-12-15T03:50:12.779Z,63.20
2022-12-15T03:51:15.106Z,63.14
2022-12-15T03:52:17.304Z,63.09
2022-12-15T03:53:19.636Z,63.00
2022-12-15T03:54:22.218Z,63.17
2022-12-15T03:55:25.447Z,63.12
2022-12-15T03:56:27.689Z,63.27
2022-12-15T03:57:29.886Z,63.39
2022-12-15T03:58:32.057Z,63.49
2022-12-15T03:59:34.238Z,63.33
2022-12-15T04:00:36.856Z,63.51
2022-12-15T04:01:49.395Z,63.51
2022-12-15T04:02:52.089Z,63.47
2022-12-15T04:04:00.430Z,63.48
2022-12-15T04:05:03.779Z,63.59
2022-12-15T04:06:06.227Z,63.47
2022-12-15T04:07:09.481Z,63.56
2022-12-15T04:08:12.975Z,63.35
2022-12-15T04:09:17.535Z,63.44
2022-12-15T04:10:20.177Z,63.38
2022-12-15T04:11:22.567Z,63.34
2022-12-15T04:12:24.857Z,63.39
2022-12-15T04:13:27.104Z,63.50
2022-12-15T04:14:30.287Z,63.29
2022-12-15T04:15:33.792Z,63.39
2022-12-15T04:16:36.026Z,63.38
2022-12-15T04:17:39.017Z,63.37
2022-12-15T04:18:41.769Z,63.25
2022-12-15T04:20:02.684Z,63.34
2022-12-15T04:21:05.070Z,63.30
2022-12-15T04:22:07.652Z,63.27
2022-12-15T04:23:09.961Z,63.28
2022-12-15T04:24:30.917Z,63.04
2022-12-15T04:25:53.737Z,63.11
2022-12-15T04:27:14.273Z,63.06
2022-12-15T04:28:34.995Z,63.09
2022-12-15T04:29:55.589Z,63.12
2022-12-15T04:31:21.658Z,63.11
2022-12-15T04:32:43.396Z,63.00
2022-12-15T04:34:09.957Z,63.10
2022-12-15T04:35:32.250Z,63.04
2022-12-15T04:36:54.643Z,63.26
2022-12-15T04:38:16.322Z,63.28
2022-12-15T04:39:37.580Z,63.26
2022-12-15T04:40:58.441Z,63.20
2022-12-15T04:42:21.142Z,63.23
2022-12-15T04:43:41.794Z,63.21
2022-12-15T04:45:02.628Z,62.97
2022-12-15T04:46:23.799Z,63.23
2022-12-15T04:47:44.959Z,63.29
2022-12-15T04:49:05.517Z,63.34
2022-12-15T04:50:26.521Z,63.40
2022-12-15T04:51:47.127Z,63.25
2022-12-15T04:53:07.861Z,63.37
2022-12-15T04:54:28.593Z,63.31
2022-12-15T04:55:54.303Z,63.38
2022-12-15T04:57:14.843Z,63.19
2022-12-15T04:58:35.821Z,63.08
2022-12-15T04:59:56.273Z,63.24
2022-12-15T05:01:16.927Z,63.16
2022-12-15T05:02:38.145Z,62.95
2022-12-15T05:03:59.392Z,63.00
2022-12-15T05:05:20.212Z,62.78
2022-12-15T05:06:42.007Z,62.73
2022-12-15T05:08:02.576Z,62.82
2022-12-15T05:09:23.715Z,62.60
2022-12-15T05:10:44.460Z,62.64
2022-12-15T05:12:05.107Z,62.47
2022-12-15T05:13:27.643Z,62.35
2022-12-15T05:14:49.619Z,62.36
2022-12-15T05:16:10.929Z,62.43
2022-12-15T05:17:34.575Z,62.21
2022-12-15T05:18:57.345Z,62.11
2022-12-15T05:20:18.009Z,62.11
2022-12-15T05:21:38.885Z,62.19
2022-12-15T05:22:59.760Z,61.99
2022-12-15T05:24:20.682Z,61.97
2022-12-15T05:25:41.401Z,62.22
2022-12-15T05:27:02.477Z,62.18
2022-12-15T05:28:26.275Z,62.39
2022-12-15T05:29:46.682Z,62.18
2022-12-15T05:31:07.638Z,62.29
2022-12-15T05:32:13.381Z,62.53
2022-12-15T05:33:15.620Z,62.53
2022-12-15T05:34:40.765Z,62.65
2022-12-15T05:35:42.970Z,62.59
2022-12-15T05:36:45.249Z,62.83
2022-12-15T05:37:47.501Z,62.83
2022-12-15T05:38:53.405Z,62.94
2022-12-15T05:39:55.669Z,63.01
2022-12-15T05:40:58.866Z,62.86
2022-12-15T05:42:01.093Z,62.76
2022-12-15T05:43:03.817Z,62.74
2022-12-15T05:44:06.212Z,62.84
2022-12-15T05:45:10.221Z,62.84
2022-12-15T05:46:14.753Z,62.67
2022-12-15T05:47:16.992Z,62.49
2022-12-15T05:48:19.752Z,62.44
2022-12-15T05:49:24.483Z,62.43
2022-12-15T05:50:26.709Z,62.50
2022-12-15T05:51:28.959Z,62.39
2022-12-15T05:52:31.199Z,62.40
2022-12-15T05:53:33.771Z,62.35
2022-12-15T05:54:36.206Z,62.31
2022-12-15T05:55:38.403Z,62.19
2022-12-15T05:56:42.855Z,62.21
2022-12-15T05:57:50.900Z,62.17
2022-12-15T05:58:53.113Z,62.05
2022-12-15T05:59:55.406Z,62.11
2022-12-15T06:01:12.021Z,62.23
2022-12-15T06:02:14.379Z,62.05
2022-12-15T06:03:19.761Z,62.10
2022-12-15T06:04:22.153Z,62.08
2022-12-15T06:05:24.499Z,62.09
2022-12-15T06:06:26.704Z,61.92
2022-12-15T06:07:29.065Z,62.16
2022-12-15T06:08:34.188Z,61.94
2022-12-15T06:09:36.380Z,62.10
2022-12-15T06:10:38.552Z,62.11
2022-12-15T06:11:40.879Z,62.17
2022-12-15T06:12:43.143Z,62.24
2022-12-15T06:13:46.740Z,62.26
2022-12-15T06:14:49.956Z,62.34
2022-12-15T06:16:16.287Z,62.34
2022-12-15T06:17:18.572Z,62.17
2022-12-15T06:18:23.297Z,62.44
2022-12-15T06:19:25.475Z,62.53
2022-12-15T06:20:29.034Z,62.59
2022-12-15T06:21:35.546Z,62.69
2022-12-15T06:22:37.714Z,62.67
2022-12-15T06:23:40.584Z,62.70
2022-12-15T06:24:42.771Z,62.91
2022-12-15T06:25:44.957Z,62.75
2022-12-15T06:26:49.733Z,63.04
2022-12-15T06:27:55.801Z,62.96
2022-12-15T06:29:04.493Z,62.96
2022-12-15T06:30:07.076Z,62.97
2022-12-15T06:31:10.763Z,63.04
2022-12-15T06:32:13.025Z,63.11
2022-12-15T06:33:15.423Z,63.24
2022-12-15T06:34:17.957Z,63.13
2022-12-15T06:35:21.369Z,63.22
2022-12-15T06:36:28.676Z,63.05
2022-12-15T06:37:31.017Z,63.23
2022-12-15T06:38:34.045Z,63.15
2022-12-15T06:39:36.296Z,63.28
2022-12-15T06:40:39.446Z,63.25
2022-12-15T06:41:42.780Z,63.34
2022-12-15T06:42:45.001Z,63.42
2022-12-15T06:43:52.059Z,63.48
2022-12-15T06:44:54.286Z,63.49
2022-12-15T06:45:57.098Z,63.40
2022-12-15T06:46:59.390Z,63.35
2022-12-15T06:48:01.996Z,63.51
2022-12-15T06:49:04.853Z,63.50
2022-12-15T06:50:07.956Z,63.54
2022-12-15T06:51:16.794Z,63.79
2022-12-15T06:52:19.691Z,63.77
2022-12-15T06:53:24.345Z,63.69
2022-12-15T06:54:26.746Z,63.74
2022-12-15T06:55:29.013Z,63.75
2022-12-15T06:56:42.514Z,63.84
2022-12-15T06:57:48.168Z,63.85
2022-12-15T06:58:52.753Z,63.79
2022-12-15T06:59:54.933Z,63.72
2022-12-15T07:00:57.398Z,63.66
2022-12-15T07:02:00.696Z,63.70
2022-12-15T07:03:05.015Z,63.63
2022-12-15T07:04:07.397Z,63.90
2022-12-15T07:05:09.770Z,63.82
2022-12-15T07:06:15.593Z,63.93
2022-12-15T07:07:17.793Z,63.87
2022-12-15T07:08:19.969Z,63.81
2022-12-15T07:09:22.449Z,63.89
2022-12-15T07:10:24.965Z,63.92
2022-12-15T07:11:27.375Z,63.80
2022-12-15T07:12:29.755Z,63.77
2022-12-15T07:13:32.572Z,63.70
2022-12-15T07:14:35.653Z,63.77
2022-12-15T07:15:38.455Z,63.67
2022-12-15T07:16:41.273Z,63.60
2022-12-15T07:17:43.600Z,63.54
2022-12-15T07:18:45.903Z,63.61
2022-12-15T07:19:48.093Z,63.44
2022-12-15T07:20:50.408Z,63.69
2022-12-15T07:21:53.133Z,63.58
2022-12-15T07:22:56.064Z,63.51
2022-12-15T07:23:59.167Z,63.58
2022-12-15T07:25:02.401Z,63.64
2022-12-15T07:26:11.430Z,63.64
2022-12-15T07:27:14.471Z,63.41
2022-12-15T07:28:20.001Z,63.38
2022-12-15T07:29:24.818Z,63.53
2022-12-15T07:30:27.315Z,63.74
2022-12-15T07:31:31.668Z,63.75
2022-12-15T07:32:34.221Z,63.62
2022-12-15T07:33:38.020Z,63.60
2022-12-15T07:34:40.375Z,63.79
2022-12-15T07:35:42.667Z,63.75
2022-12-15T07:36:50.139Z,63.85
2022-12-15T07:37:54.469Z,63.92
2022-12-15T07:39:01.504Z,64.12
2022-12-15T07:40:05.325Z,63.91
2022-12-15T07:41:09.595Z,64.22
2022-12-15T07:42:14.331Z,64.19
2022-12-15T07:43:16.748Z,64.26
2022-12-15T07:44:18.954Z,64.35
2022-12-15T07:45:22.006Z,64.35
2022-12-15T07:46:26.005Z,64.53
2022-12-15T07:47:28.987Z,64.39
2022-12-15T07:48:31.627Z,64.44
2022-12-15T07:49:33.913Z,64.61
2022-12-15T07:50:39.914Z,64.56
2022-12-15T07:51:42.134Z,64.45
2022-12-15T07:52:45.322Z,64.55
2022-12-15T07:53:50.139Z,64.54
2022-12-15T07:54:52.515Z,64.67
2022-12-15T07:56:07.433Z,64.62
2022-12-15T07:57:10.548Z,64.58
2022-12-15T07:58:12.729Z,64.51
2022-12-15T07:59:14.949Z,64.55
2022-12-15T08:00:18.271Z,64.56
2022-12-15T08:01:20.785Z,64.45
2022-12-15T08:02:23.320Z,64.50
2022-12-15T08:03:25.960Z,64.45
2022-12-15T08:04:28.235Z,64.56
2022-12-15T08:05:30.451Z,64.49
2022-12-15T08:06:32.817Z,64.38
2022-12-15T08:07:35.452Z,64.35
2022-12-15T08:08:37.842Z,64.32
2022-12-15T08:09:40.076Z,64.41
2022-12-15T08:10:42.355Z,64.34
2022-12-15T08:11:44.609Z,64.52
2022-12-15T08:12:46.866Z,64.27
2022-12-15T08:14:02.496Z,64.49
2022-12-15T08:15:06.620Z,64.42
2022-12-15T08:16:08.947Z,64.44
2022-12-15T08:17:11.217Z,64.21
2022-12-15T08:18:13.612Z,64.10
2022-12-15T08:19:17.974Z,64.32
2022-12-15T08:20:20.151Z,64.26
2022-12-15T08:21:22.637Z,64.60
2022-12-15T08:22:24.896Z,64.68
2022-12-15T08:23:29.238Z,64.63
2022-12-15T08:24:31.695Z,64.66
2022-12-15T08:25:33.879Z,65.07
2022-12-15T08:26:38.079Z,65.23
2022-12-15T08:27:40.355Z,65.39
2022-12-15T08:28:46.073Z,65.95
2022-12-15T08:29:51.177Z,66.16
2022-12-15T08:30:53.962Z,66.47
2022-12-15T08:31:56.280Z,66.64
2022-12-15T08:32:58.858Z,66.96
2022-12-15T08:34:02.170Z,66.96
2022-12-15T08:35:04.608Z,67.25
2022-12-15T08:36:10.056Z,67.58
2022-12-15T08:37:12.371Z,67.65
2022-12-15T08:38:14.576Z,68.09
2022-12-15T08:39:17.089Z,68.07
2022-12-15T08:40:19.255Z,68.19
2022-12-15T08:41:29.743Z,68.54
2022-12-15T08:42:36.393Z,68.21
2022-12-15T08:43:47.227Z,68.37
2022-12-15T08:44:50.396Z,67.92
2022-12-15T08:45:53.611Z,67.42
2022-12-15T08:46:55.903Z,67.05
2022-12-15T08:47:58.118Z,66.82
2022-12-15T08:49:01.944Z,66.46
2022-12-15T08:50:07.575Z,66.03
2022-12-15T08:51:10.765Z,65.77
2022-12-15T08:52:13.012Z,65.99
2022-12-15T08:53:30.792Z,66.21
2022-12-15T08:54:34.512Z,66.39
2022-12-15T08:55:36.831Z,66.41
2022-12-15T08:56:39.139Z,66.66
2022-12-15T08:57:41.322Z,66.76
2022-12-15T08:58:45.116Z,66.92
2022-12-15T08:59:47.380Z,66.85
2022-12-15T09:00:49.671Z,66.68
2022-12-15T09:01:52.087Z,66.67
2022-12-15T09:02:54.464Z,66.72
2022-12-15T09:03:57.546Z,66.67
2022-12-15T09:04:59.860Z,66.33
2022-12-15T09:06:06.642Z,66.13
2022-12-15T09:07:08.953Z,66.20
2022-12-15T09:08:11.260Z,66.28
2022-12-15T09:09:14.083Z,65.99
2022-12-15T09:10:16.266Z,65.67
2022-12-15T09:11:18.557Z,65.09
2022-12-15T09:12:21.148Z,64.68
2022-12-15T09:13:23.357Z,64.65
2022-12-15T09:14:29.211Z,64.29
2022-12-15T09:16:07.139Z,64.13
2022-12-15T09:16:55.601Z,64.15
2022-12-15T09:18:00.710Z,63.91
2022-12-15T09:19:04.034Z,63.58
2022-12-15T09:20:09.356Z,63.11
2022-12-15T09:21:12.643Z,62.66
2022-12-15T09:22:14.884Z,62.44
2022-12-15T09:23:17.164Z,62.36
2022-12-15T09:24:28.819Z,62.17
2022-12-15T09:25:36.507Z,62.08
2022-12-15T09:26:38.877Z,61.90
2022-12-15T09:27:41.056Z,61.52
2022-12-15T09:28:43.549Z,61.10
2022-12-15T09:29:45.760Z,61.05
2022-12-15T09:30:47.997Z,60.39
2022-12-15T09:31:50.293Z,60.24
2022-12-15T09:32:52.480Z,59.94
2022-12-15T09:33:58.649Z,59.59
2022-12-15T09:35:00.836Z,59.49
2022-12-15T09:36:04.093Z,59.22
2022-12-15T09:37:06.355Z,59.11
2022-12-15T09:38:08.535Z,58.53
2022-12-15T09:39:12.416Z,58.35
2022-12-15T09:40:15.177Z,57.99
2022-12-15T09:41:24.543Z,57.81
2022-12-15T09:42:29.137Z,57.36
2022-12-15T09:43:36.361Z,57.15
2022-12-15T09:44:40.407Z,57.27
2022-12-15T09:45:47.977Z,56.92
2022-12-15T09:47:31.793Z,56.80
2022-12-15T09:48:42.489Z,56.34
2022-12-15T09:49:57.753Z,56.03
2022-12-15T09:51:04.517Z,55.96
2022-12-15T09:52:15.861Z,55.57
2022-12-15T09:53:52.990Z,55.60
2022-12-15T09:54:44.534Z,55.45
2022-12-15T09:55:52.104Z,55.14
2022-12-15T09:56:59.075Z,54.82
2022-12-15T09:58:33.523Z,54.72
2022-12-15T09:59:38.639Z,54.50
2022-12-15T10:00:50.675Z,54.36
2022-12-15T10:02:28.583Z,54.36
2022-12-15T10:04:07.847Z,53.90
2022-12-15T10:05:50.121Z,53.53
2022-12-15T10:06:54.245Z,53.79
2022-12-15T10:07:59.287Z,53.17
2022-12-15T10:09:12.280Z,53.15
2022-12-15T10:10:25.573Z,52.97
2022-12-15T10:11:27.732Z,53.00
2022-12-15T10:12:36.453Z,52.67
2022-12-15T10:13:54.487Z,52.63
2022-12-15T10:15:01.132Z,52.96
2022-12-15T10:16:14.930Z,52.73
2022-12-15T10:17:25.360Z,52.66
2022-12-15T10:18:38.082Z,52.57
2022-12-15T10:19:52.147Z,52.30
2022-12-15T10:20:55.492Z,52.52
2022-12-15T10:21:59.199Z,52.37
2022-12-15T10:23:13.228Z,52.22
2022-12-15T10:24:51.825Z,52.55
2022-12-15T10:26:15.792Z,52.19
2022-12-15T10:27:36.135Z,52.33
2022-12-15T10:29:06.471Z,52.20
2022-12-15T10:30:14.160Z,51.97
2022-12-15T10:31:42.954Z,52.07
2022-12-15T10:33:05.435Z,52.13
2022-12-15T10:34:26.225Z,51.76
2022-12-15T10:35:32.678Z,51.70
2022-12-15T10:36:35.573Z,51.77
2022-12-15T10:37:38.835Z,51.39
2022-12-15T10:38:45.974Z,51.33
2022-12-15T10:39:52.710Z,51.38
2022-12-15T10:40:59.443Z,51.21
2022-12-15T10:42:11.377Z,51.09
2022-12-15T10:43:41.175Z,51.30
2022-12-15T10:44:50.503Z,51.13
2022-12-15T10:46:02.246Z,50.97
2022-12-15T10:47:31.884Z,50.85
2022-12-15T10:48:34.050Z,50.77
2022-12-15T10:49:36.323Z,50.63
2022-12-15T10:50:38.577Z,50.70
2022-12-15T10:51:47.209Z,50.33
2022-12-15T10:52:49.451Z,50.31
2022-12-15T10:54:03.536Z,50.29
2022-12-15T10:55:53.155Z,50.13
2022-12-15T10:57:01.978Z,50.21
2022-12-15T10:58:16.520Z,50.11
2022-12-15T10:59:35.773Z,50.14
2022-12-15T11:00:38.311Z,50.23
2022-12-15T11:01:40.693Z,50.18
2022-12-15T11:02:43.194Z,50.10
2022-12-15T11:03:46.366Z,50.29
2022-12-15T11:05:17.183Z,50.15
2022-12-15T11:06:26.281Z,50.08
2022-12-15T11:07:39.249Z,49.85
2022-12-15T11:08:43.479Z,49.88
2022-12-15T11:09:48.352Z,49.82
2022-12-15T11:11:14.649Z,49.91
2022-12-15T11:12:45.208Z,49.81
2022-12-15T11:14:13.515Z,49.89
2022-12-15T11:15:21.613Z,49.68
2022-12-15T11:16:24.608Z,49.77
2022-12-15T11:17:40.600Z,49.53
2022-12-15T11:19:01.613Z,49.73
2022-12-15T11:20:21.301Z,49.56
2022-12-15T11:21:35.020Z,49.50
2022-12-15T11:22:48.493Z,49.49
2022-12-15T11:24:29.390Z,49.47
2022-12-15T11:25:40.562Z,49.54
2022-12-15T11:26:49.010Z,49.35
2022-12-15T11:27:57.019Z,49.30
2022-12-15T11:29:20.764Z,49.30
2022-12-15T11:31:43.293Z,49.22
2022-12-15T11:32:53.680Z,49.03
2022-12-15T11:33:57.635Z,49.18
2022-12-15T11:35:00.379Z,48.83
2022-12-15T11:36:19.860Z,49.02
2022-12-15T11:37:39.126Z,48.88
2022-12-15T11:38:48.880Z,48.88
2022-12-15T11:40:24.210Z,49.05
2022-12-15T11:41:42.974Z,49.05
2022-12-15T11:43:14.968Z,48.92
2022-12-15T11:44:34.742Z,49.21
2022-12-15T11:45:54.510Z,48.87
2022-12-15T11:47:40.901Z,49.14
2022-12-15T11:48:57.653Z,49.08
2022-12-15T11:50:21.464Z,49.03
2022-12-15T11:51:45.672Z,49.20
2022-12-15T11:53:09.896Z,48.90
2022-12-15T11:54:28.464Z,49.08
2022-12-15T11:55:57.493Z,49.01
2022-12-15T11:57:27.318Z,49.12
2022-12-15T11:59:05.242Z,49.12
2022-12-15T12:00:13.668Z,49.02
2022-12-15T12:01:39.022Z,48.90
2022-12-15T12:02:59.670Z,49.05
2022-12-15T12:04:07.821Z,48.91
2022-12-15T12:05:19.483Z,48.80
2022-12-15T12:06:46.709Z,49.11
2022-12-15T12:08:18.951Z,49.02
2022-12-15T12:09:35.258Z,49.25
2022-12-15T12:10:49.715Z,49.50
2022-12-15T12:12:16.467Z,49.25
2022-12-15T12:13:39.053Z,49.45
2022-12-15T12:14:50.751Z,49.37
2022-12-15T12:16:20.418Z,49.33
2022-12-15T12:17:43.829Z,49.53
2022-12-15T12:19:11.851Z,49.63
2022-12-15T12:20:20.239Z,49.51
2022-12-15T12:21:26.885Z,49.66
2022-12-15T12:22:37.680Z,49.61
2022-12-15T12:23:49.853Z,49.75
2022-12-15T12:25:01.449Z,49.79
2022-12-15T12:26:15.968Z,49.90
2022-12-15T12:27:24.344Z,49.79
2022-12-15T12:28:58.275Z,49.98
2022-12-15T12:30:16.717Z,49.81
2022-12-15T12:32:04.209Z,49.89
2022-12-15T12:33:31.953Z,50.13
2022-12-15T12:35:31.249Z,49.99
2022-12-15T12:36:25.580Z,50.04
2022-12-15T12:37:27.804Z,50.24
2022-12-15T12:38:37.338Z,50.13
2022-12-15T12:39:39.994Z,50.23
2022-12-15T12:41:03.263Z,50.01
2022-12-15T12:42:45.753Z,50.40
2022-12-15T12:43:59.892Z,50.41
2022-12-15T12:45:02.744Z,50.44
2022-12-15T12:46:16.833Z,50.40
2022-12-15T12:47:33.224Z,50.39
2022-12-15T12:49:07.553Z,50.50
2022-12-15T12:50:21.861Z,50.29
2022-12-15T12:51:33.615Z,50.45
2022-12-15T12:52:38.524Z,50.42
2022-12-15T12:53:42.053Z,50.46
2022-12-15T12:54:56.155Z,50.48
2022-12-15T12:55:58.462Z,50.50
2022-12-15T12:57:03.076Z,50.52
2022-12-15T12:58:30.913Z,50.40
2022-12-15T12:59:37.681Z,50.46
2022-12-15T13:01:19.307Z,50.51
2022-12-15T13:02:21.671Z,50.53
2022-12-15T13:03:24.019Z,50.35
2022-12-15T13:04:28.909Z,50.53
2022-12-15T13:05:37.282Z,50.49
2022-12-15T13:06:39.393Z,50.44
2022-12-15T13:07:41.652Z,50.53
2022-12-15T13:08:51.435Z,50.49
2022-12-15T13:10:17.668Z,50.64
2022-12-15T13:11:45.029Z,50.67
2022-12-15T13:13:14.019Z,50.69
2022-12-15T13:14:25.612Z,50.55
2022-12-15T13:15:31.062Z,50.48
2022-12-15T13:16:37.188Z,50.57
2022-12-15T13:17:51.337Z,50.48
2022-12-15T13:19:12.173Z,50.71
2022-12-15T13:20:23.846Z,50.73
2022-12-15T13:21:51.732Z,50.89
2022-12-15T13:22:54.584Z,50.69
2022-12-15T13:23:59.365Z,50.71
2022-12-15T13:25:02.964Z,50.67
2022-12-15T13:26:05.563Z,50.63
2022-12-15T13:27:11.556Z,50.73
2022-12-15T13:28:22.551Z,50.65
2022-12-15T13:29:24.814Z,50.61
2022-12-15T13:30:27.302Z,50.76
2022-12-15T13:31:31.713Z,51.07
2022-12-15T13:32:45.300Z,51.19
2022-12-15T13:33:50.457Z,50.99
2022-12-15T13:34:52.842Z,50.94
2022-12-15T13:35:55.116Z,50.92
2022-12-15T13:36:58.514Z,50.92
2022-12-15T13:38:03.209Z,50.93
2022-12-15T13:39:28.272Z,51.01
2022-12-15T13:40:51.702Z,50.87
2022-12-15T13:43:27.768Z,50.98
2022-12-15T13:44:42.852Z,50.82
2022-12-15T13:45:52.088Z,50.88
2022-12-15T13:46:55.701Z,50.91
2022-12-15T13:47:59.351Z,51.00
2022-12-15T13:49:12.321Z,50.80
2022-12-15T13:50:27.382Z,51.01
2022-12-15T13:51:35.419Z,50.99
2022-12-15T13:54:24.828Z,51.04
2022-12-15T13:55:37.238Z,51.05
2022-12-15T13:57:09.928Z,51.07
2022-12-15T13:58:17.713Z,51.18
2022-12-15T13:59:32.396Z,51.14
2022-12-15T14:00:42.309Z,51.05
2022-12-15T14:01:52.530Z,51.14
2022-12-15T14:03:11.661Z,51.22
2022-12-15T14:04:15.837Z,51.33
2022-12-15T14:05:21.941Z,51.29
2022-12-15T14:06:24.177Z,51.33
2022-12-15T14:07:28.269Z,51.20
2022-12-15T14:08:31.390Z,51.35
2022-12-15T14:09:37.049Z,51.31
2022-12-15T14:11:07.055Z,51.52
2022-12-15T14:12:23.954Z,51.43
2022-12-15T14:13:37.416Z,51.32
2022-12-15T14:14:46.768Z,51.49
2022-12-15T14:15:58.128Z,51.37
2022-12-15T14:17:03.919Z,51.46
2022-12-15T14:18:06.760Z,51.43
2022-12-15T14:19:08.916Z,51.62
2022-12-15T14:20:19.178Z,51.40
2022-12-15T14:21:22.919Z,51.67
2022-12-15T14:22:29.771Z,51.53
2022-12-15T14:23:58.031Z,51.61
2022-12-15T14:25:14.325Z,51.76
2022-12-15T14:26:17.079Z,51.67
2022-12-15T14:27:30.739Z,51.80
2022-12-15T14:28:36.310Z,51.81
2022-12-15T14:29:38.581Z,51.82
2022-12-15T14:30:42.166Z,51.74
2022-12-15T14:31:51.697Z,51.71
2022-12-15T14:33:16.329Z,51.80
2022-12-15T14:34:27.366Z,51.93
2022-12-15T14:35:37.963Z,51.87
2022-12-15T14:36:42.179Z,52.03
2022-12-15T14:37:44.874Z,51.98
2022-12-15T14:39:00.001Z,51.95
2022-12-15T14:40:02.432Z,52.04
2022-12-15T14:41:06.057Z,52.12
2022-12-15T14:42:25.992Z,52.07
2022-12-15T14:43:32.671Z,51.96
2022-12-15T14:44:40.060Z,52.09
2022-12-15T14:45:43.389Z,52.19
2022-12-15T14:46:48.354Z,52.17
2022-12-15T14:48:21.464Z,52.10
2022-12-15T14:49:21.506Z,52.29
2022-12-15T14:50:25.822Z,52.20
2022-12-15T14:51:30.297Z,52.21
2022-12-15T14:52:39.948Z,52.34
2022-12-15T14:53:45.073Z,52.22
2022-12-15T14:54:58.962Z,52.24
2022-12-15T14:56:24.164Z,52.27
2022-12-15T14:57:40.824Z,52.47
2022-12-15T14:58:43.696Z,52.45
2022-12-15T14:59:48.666Z,52.52
2022-12-15T15:00:53.716Z,52.31
2022-12-15T15:02:14.686Z,52.45
2022-12-15T15:04:43.241Z,52.70
2022-12-15T15:05:47.852Z,52.78
2022-12-15T15:06:55.445Z,52.82
2022-12-15T15:07:57.930Z,52.78
2022-12-15T15:09:12.946Z,52.68
2022-12-15T15:10:26.481Z,52.77